createdAt,value
2022-11-27T06:21:47.771Z,9.57
2022-11-27T06:24:51.433Z,10.13
2022-11-27T06:27:54.202Z,10.63
2022-11-27T06:31:20.144Z,11.12
2022-11-27T06:34:23.230Z,10.40
2022-11-27T06:38:26.394Z,10.80
2022-11-27T06:41:29.261Z,10.27
2022-11-27T06:44:32.213Z,11.80
2022-11-27T06:47:58.635Z,11.63
2022-11-27T06:51:03.410Z,13.95
2022-11-27T06:54:06.124Z,13.32
2022-11-27T06:57:09.281Z,13.10
2022-11-27T07:00:12.437Z,12.02
2022-11-27T07:03:15.621Z,9.13
2022-11-27T07:06:22.176Z,12.68
2022-11-27T07:09:25.476Z,12.02
2022-11-27T07:12:28.143Z,12.15
2022-11-27T07:15:32.814Z,14.55
2022-11-27T07:18:37.896Z,12.13
2022-11-27T07:21:41.044Z,11.82
2022-11-27T07:24:43.605Z,12.55
2022-11-27T07:27:49.297Z,11.32
2022-11-27T07:30:58.583Z,12.48
2022-11-27T07:34:01.622Z,12.37
2022-11-27T07:37:04.372Z,11.77
2022-11-27T07:40:07.960Z,13.45
2022-11-27T07:43:10.700Z,12.43
2022-11-27T07:46:19.693Z,14.35
2022-11-27T07:49:22.283Z,13.30
2022-11-27T07:52:25.408Z,14.48
2022-11-27T07:55:28.086Z,16.55
2022-11-27T07:58:31.397Z,15.25
2022-11-27T08:01:34.116Z,15.75
2022-11-27T08:04:37.135Z,14.87
2022-11-27T08:07:40.184Z,13.90
2022-11-27T08:10:43.647Z,15.85
2022-11-27T08:13:46.658Z,14.57
2022-11-27T08:16:49.656Z,14.05
2022-11-27T08:19:52.569Z,13.98
2022-11-27T08:22:59.638Z,14.32
2022-11-27T08:26:09.570Z,13.40
2022-11-27T08:29:12.647Z,13.77
2022-11-27T08:32:15.584Z,13.55
2022-11-27T08:35:18.874Z,13.88
2022-11-27T08:38:22.088Z,15.18
2022-11-27T08:41:25.269Z,13.52
2022-11-27T08:44:28.254Z,14.73
2022-11-27T08:47:33.193Z,15.63
2022-11-27T08:50:37.952Z,14.85
2022-11-27T08:53:41.223Z,15.13
2022-11-27T08:56:43.905Z,15.43
2022-11-27T08:59:46.896Z,13.93
2022-11-27T09:02:49.610Z,15.25
2022-11-27T09:05:52.596Z,15.35
2022-11-27T09:08:57.124Z,14.38
2022-11-27T09:12:00.445Z,15.32
2022-11-27T09:15:04.817Z,16.08
2022-11-27T09:18:07.940Z,16.92
2022-11-27T09:21:12.684Z,16.83
2022-11-27T09:24:15.646Z,17.10
2022-11-27T09:27:18.420Z,15.70
2022-11-27T09:30:21.589Z,16.48
2022-11-27T09:33:47.203Z,17.73
2022-11-27T09:36:52.961Z,16.08
2022-11-27T09:39:55.859Z,15.35
2022-11-27T09:43:10.139Z,16.60
2022-11-27T09:46:17.640Z,17.08
2022-11-27T09:49:37.855Z,16.58
2022-11-27T09:53:17.997Z,17.83
2022-11-27T09:56:21.064Z,17.37
2022-11-27T09:59:49.115Z,16.50
2022-11-27T10:02:52.586Z,17.12
2022-11-27T10:06:24.325Z,17.48
2022-11-27T10:13:18.774Z,17.40
2022-11-27T10:16:44.907Z,17.37
2022-11-27T10:20:11.818Z,17.27
2022-11-27T10:23:44.028Z,16.35
2022-11-27T10:26:49.077Z,18.10
2022-11-27T10:29:54.705Z,18.60
2022-11-27T10:33:00.337Z,15.98
2022-11-27T10:36:03.183Z,18.12
2022-11-27T10:39:25.127Z,17.45
2022-11-27T10:42:40.990Z,16.98
2022-11-27T10:45:54.619Z,17.58
2022-11-27T10:48:58.313Z,16.75
2022-11-27T10:52:01.391Z,15.32
2022-11-27T10:55:19.044Z,16.90
2022-11-27T10:58:32.976Z,16.95
2022-11-27T11:01:45.070Z,18.98
2022-11-27T11:05:03.251Z,18.33
2022-11-27T11:08:21.120Z,18.10
2022-11-27T11:11:27.750Z,18.98
2022-11-27T11:14:30.432Z,18.33
2022-11-27T11:17:34.869Z,17.45
2022-11-27T11:20:38.346Z,15.40
2022-11-27T11:23:42.284Z,16.98
2022-11-27T11:26:51.392Z,16.92
2022-11-27T11:30:01.214Z,18.13
2022-11-27T11:33:04.602Z,19.05
2022-11-27T11:36:10.801Z,17.75
2022-11-27T11:39:24.816Z,17.95
2022-11-27T11:42:33.828Z,18.05
2022-11-27T11:45:46.881Z,19.10
2022-11-27T11:49:23.300Z,19.20
2022-11-27T11:52:59.454Z,18.75
2022-11-27T11:56:17.948Z,18.45
2022-11-27T12:00:07.366Z,17.20
2022-11-27T12:03:12.295Z,19.87
2022-11-27T12:06:21.156Z,18.55
2022-11-27T12:09:51.450Z,17.48
2022-11-27T12:13:22.851Z,19.12
2022-11-27T12:16:29.221Z,17.48
2022-11-27T12:19:56.893Z,17.62
2022-11-27T12:23:18.796Z,17.80
2022-11-27T12:26:43.467Z,17.52
2022-11-27T12:29:52.325Z,17.65
2022-11-27T12:33:10.361Z,18.02
2022-11-27T12:37:02.376Z,19.17
2022-11-27T12:40:27.026Z,19.80
2022-11-27T12:43:45.054Z,17.77
2022-11-27T12:47:09.669Z,21.10
2022-11-27T12:50:40.602Z,17.98
2022-11-27T12:54:11.503Z,16.80
2022-11-27T12:57:23.401Z,19.58
2022-11-27T13:00:48.306Z,19.30
2022-11-27T13:04:15.806Z,18.52
2022-11-27T13:07:24.655Z,17.55
2022-11-27T13:10:34.835Z,19.25
2022-11-27T13:13:43.674Z,17.65
2022-11-27T13:16:58.624Z,24.27
2022-11-27T13:20:04.051Z,19.00
2022-11-27T13:23:07.404Z,19.50
2022-11-27T13:26:26.589Z,20.92
2022-11-27T13:30:00.997Z,18.85
2022-11-27T13:33:06.458Z,19.20
2022-11-27T13:36:23.770Z,17.00
2022-11-27T13:39:39.068Z,17.27
2022-11-27T13:42:46.703Z,18.20
2022-11-27T13:45:51.828Z,18.20
2022-11-27T13:49:02.735Z,20.83
2022-11-27T13:52:19.741Z,18.90
2022-11-27T13:55:27.445Z,17.55
2022-11-27T13:58:41.920Z,17.48
2022-11-27T14:02:05.316Z,17.50
2022-11-27T14:05:55.141Z,16.62
2022-11-27T14:09:03.689Z,18.45
2022-11-27T14:12:20.997Z,17.50
2022-11-27T14:15:28.114Z,15.77
2022-11-27T14:18:31.477Z,16.40
2022-11-27T14:21:39.420Z,15.75
2022-11-27T14:24:46.010Z,17.83
2022-11-27T14:28:04.363Z,16.45
2022-11-27T14:31:27.630Z,15.98
2022-11-27T14:34:53.366Z,17.50
2022-11-27T14:38:09.314Z,21.60
2022-11-27T14:41:32.119Z,21.55
2022-11-27T14:44:35.383Z,19.30
2022-11-27T14:47:50.089Z,19.55
2022-11-27T14:51:21.086Z,18.42
2022-11-27T14:54:30.653Z,20.23
2022-11-27T14:57:33.792Z,19.17
2022-11-27T15:01:10.911Z,19.48
2022-11-27T15:04:37.468Z,20.17
2022-11-27T15:07:50.827Z,20.90
2022-11-27T15:10:58.576Z,24.83
2022-11-27T15:14:03.645Z,24.08
2022-11-27T15:17:06.791Z,22.35
2022-11-27T15:20:23.561Z,25.27
2022-11-27T15:23:30.261Z,27.90
2022-11-27T15:26:37.832Z,25.02
2022-11-27T15:29:44.308Z,21.62
2022-11-27T15:32:52.915Z,21.60
2022-11-27T15:36:21.245Z,21.92
2022-11-27T15:39:47.207Z,23.65
2022-11-27T15:42:50.280Z,23.30
2022-11-27T15:45:53.655Z,20.12
2022-11-27T15:48:57.140Z,20.25
2022-11-27T15:52:00.108Z,21.35
2022-11-27T15:55:03.160Z,19.77
2022-11-27T15:58:05.913Z,19.65
2022-11-27T16:01:10.228Z,20.10
2022-11-27T16:04:13.308Z,19.98
2022-11-27T16:07:16.583Z,21.00
2022-11-27T16:10:19.653Z,40.33
2022-11-27T16:13:22.283Z,21.77
2022-11-27T16:16:25.518Z,35.22
2022-11-27T16:19:28.763Z,18.75
2022-11-27T16:22:34.274Z,19.92
2022-11-27T16:25:40.436Z,18.45
2022-11-27T16:28:43.678Z,18.05
2022-11-27T16:31:46.784Z,16.23
2022-11-27T16:34:55.457Z,18.37
2022-11-27T16:37:58.273Z,18.23
2022-11-27T16:41:03.794Z,20.60
2022-11-27T16:44:12.101Z,17.23
2022-11-27T16:47:20.647Z,18.12
2022-11-27T16:50:37.842Z,19.52
2022-11-27T16:53:44.043Z,18.33
2022-11-27T16:56:47.069Z,17.98
2022-11-27T16:59:50.911Z,19.70
2022-11-27T17:02:54.594Z,16.85
2022-11-27T17:05:58.735Z,18.45
2022-11-27T17:09:03.579Z,18.77
2022-11-27T17:12:06.959Z,17.60
2022-11-27T17:15:10.456Z,17.77
2022-11-27T17:18:13.807Z,18.23
2022-11-27T17:21:21.188Z,16.92
2022-11-27T17:24:25.903Z,17.85
2022-11-27T17:27:28.947Z,17.95
2022-11-27T17:30:36.465Z,17.27
2022-11-27T17:33:42.483Z,17.70
2022-11-27T17:36:46.285Z,18.30
2022-11-27T17:39:49.187Z,18.67
2022-11-27T17:42:52.446Z,17.73
2022-11-27T17:45:55.116Z,21.73
2022-11-27T17:49:00.836Z,19.50
2022-11-27T17:52:06.539Z,19.00
2022-11-27T17:55:10.754Z,19.95
2022-11-27T17:58:13.905Z,20.00
2022-11-27T18:01:23.006Z,20.37
2022-11-27T18:04:26.365Z,21.25
2022-11-27T18:07:29.298Z,20.37
2022-11-27T18:11:06.422Z,20.75
2022-11-27T18:14:13.531Z,18.73
2022-11-27T18:17:17.442Z,17.90
2022-11-27T18:20:20.674Z,13.88
2022-11-27T18:23:23.762Z,19.17
2022-11-27T18:26:45.500Z,18.90
2022-11-27T18:29:50.274Z,15.18
2022-11-27T18:32:53.252Z,16.75
2022-11-27T18:35:56.121Z,17.08
2022-11-27T18:39:01.473Z,16.10
2022-11-27T18:42:06.483Z,16.42
2022-11-27T18:45:25.383Z,15.32
2022-11-27T18:48:35.111Z,15.57
2022-11-27T18:51:37.827Z,14.98
2022-11-27T18:54:41.215Z,13.73
2022-11-27T18:57:44.088Z,16.30
2022-11-27T19:01:35.449Z,14.23
2022-11-27T19:04:43.172Z,13.90
2022-11-27T19:07:47.201Z,15.13
2022-11-27T19:10:50.361Z,15.48
2022-11-27T19:13:55.651Z,15.60
2022-11-27T19:17:03.887Z,16.40
2022-11-27T19:20:08.282Z,17.70
2022-11-27T19:23:11.547Z,15.52
2022-11-27T19:26:39.632Z,15.10
2022-11-27T19:29:46.396Z,14.38
2022-11-27T19:32:49.717Z,17.40
2022-11-27T19:35:52.588Z,17.90
2022-11-27T19:39:05.019Z,15.75
2022-11-27T19:42:07.925Z,15.23
2022-11-27T19:45:11.060Z,15.50
2022-11-27T19:48:16.505Z,13.85
2022-11-27T19:51:21.841Z,15.77
2022-11-27T19:54:24.602Z,15.07
2022-11-27T19:57:28.398Z,12.48
2022-11-27T20:00:31.474Z,12.95
2022-11-27T20:03:34.693Z,12.32
2022-11-27T20:06:41.212Z,11.93
2022-11-27T20:09:44.425Z,16.00
2022-11-27T20:12:47.116Z,15.20
2022-11-27T20:15:50.049Z,14.02
2022-11-27T20:18:53.336Z,14.55
2022-11-27T20:21:56.712Z,15.82
2022-11-27T20:25:18.471Z,14.13
2022-11-27T20:28:23.269Z,15.20
2022-11-27T20:31:34.405Z,13.00
2022-11-27T20:34:37.849Z,13.35
2022-11-27T20:37:40.844Z,13.80
2022-11-27T20:40:44.616Z,14.43
2022-11-27T20:43:48.359Z,13.93
2022-11-27T20:46:51.584Z,12.95
2022-11-27T20:49:54.827Z,14.07
2022-11-27T20:52:58.554Z,12.77
2022-11-27T20:56:02.937Z,11.90
2022-11-27T20:59:07.965Z,14.50
2022-11-27T21:02:13.248Z,11.02
2022-11-27T21:05:16.641Z,13.15
2022-11-27T21:08:19.838Z,11.70
2022-11-27T21:11:26.351Z,10.75
2022-11-27T21:14:29.039Z,10.60
2022-11-27T21:17:32.285Z,14.23
2022-11-27T21:20:36.817Z,12.63
2022-11-27T21:23:41.829Z,12.95
2022-11-27T21:26:45.291Z,12.25
2022-11-27T21:29:49.576Z,11.88
2022-11-27T21:32:52.415Z,10.63
2022-11-27T21:35:56.148Z,11.88
2022-11-27T21:39:02.320Z,11.40
2022-11-27T21:42:05.527Z,13.65
2022-11-27T21:45:26.478Z,13.75
2022-11-27T21:48:30.613Z,14.55
2022-11-27T21:51:33.487Z,11.73
2022-11-27T21:54:39.232Z,13.27
2022-11-27T21:57:42.243Z,13.35
2022-11-27T22:00:45.387Z,12.82
2022-11-27T22:03:51.498Z,12.90
2022-11-27T22:06:54.368Z,11.68
2022-11-27T22:09:57.725Z,12.15
2022-11-27T22:13:00.420Z,14.35
2022-11-27T22:16:09.603Z,14.18
2022-11-27T22:19:12.512Z,14.40
2022-11-27T22:22:15.541Z,13.62
2022-11-27T22:25:18.378Z,13.38
2022-11-27T22:28:21.482Z,13.18
2022-11-27T22:31:29.697Z,13.75
2022-11-27T22:34:33.304Z,14.90
2022-11-27T22:37:36.118Z,13.85
2022-11-27T22:40:39.550Z,12.60
2022-11-27T22:43:43.362Z,14.70
2022-11-27T22:46:47.040Z,13.60
2022-11-27T22:49:50.241Z,13.45
2022-11-27T22:52:58.032Z,12.90
2022-11-27T22:56:08.812Z,14.15
2022-11-27T23:02:38.163Z,13.55
2022-11-27T23:05:45.296Z,14.63
2022-11-27T23:08:50.021Z,14.90
2022-11-27T23:11:54.106Z,14.40
2022-11-27T23:14:56.854Z,13.20
2022-11-27T23:17:59.846Z,13.38
2022-11-27T23:21:11.798Z,13.90
2022-11-27T23:24:17.486Z,12.18
2022-11-27T23:27:20.449Z,12.93
2022-11-27T23:30:26.019Z,11.60
2022-11-27T23:33:28.941Z,13.18
2022-11-27T23:36:32.626Z,14.93
2022-11-27T23:39:35.267Z,13.02
2022-11-27T23:42:38.321Z,13.02
2022-11-27T23:45:41.060Z,12.95
2022-11-27T23:48:45.374Z,10.30
2022-11-27T23:51:48.352Z,12.18
2022-11-27T23:54:51.410Z,13.45
2022-11-27T23:57:54.045Z,12.55
